Terminal Aerodrome Forecast
Issued by NWS

Current Version | Previous Version | Text Only | Print | Product List | Glossary On
Versions: 1 2 3 4 5 6 7 8 9 10 11 12 13 14
000
FTUS42 TJSJ 010500
TAFKPK
TAF
TKPK 010530Z 0106/0206 10005KT P6SM VCSH FEW020
     FM011430 10009KT P6SM VCSH SCT022
      AMD NOT SKED TIL 011100=

USA.gov is the U.S. government's official web portal to all federal, state and local government web resources and services.